Time;durP1;ratioP1;P1;durP2;ratioP2;P2;SDS_P1;SDS_P2;PMS_P1;PMS_P2;Temp;Humidity;BMP_temperature;BMP_pressure;BME280_temperature;BME280_humidity;BME280_pressure;Samples;Min_cycle;Max_cycle;Signal;HPM_P1;HPM_P2
2021/12/27 00:01:32;;;;;;;4.18;1.58;;;;;;;13.76;74.29;101780.22;5049299;28;20043;-72
2021/12/27 00:03:59;;;;;;;3.55;1.45;;;;;;;13.71;74.18;101786.31;5047724;28;20091;-72
2021/12/27 00:06:27;;;;;;;4.45;1.95;;;;;;;13.66;74.17;101790.59;5063377;28;20091;-72
2021/12/27 00:08:55;;;;;;;4.60;1.52;;;;;;;13.66;74.26;101787.94;5048967;28;20073;-72
2021/12/27 00:11:23;;;;;;;2.15;1.30;;;;;;;13.67;74.15;101780.03;5049966;28;20568;-72
2021/12/27 00:13:50;;;;;;;5.68;1.10;;;;;;;13.65;73.94;101784.44;5068960;28;20041;-72
2021/12/27 00:16:18;;;;;;;5.28;1.52;;;;;;;13.64;74.33;101784.41;5053117;28;20072;-72
2021/12/27 00:18:47;;;;;;;3.35;1.20;;;;;;;13.67;74.07;101784.44;5067575;28;20086;-72
2021/12/27 00:21:15;;;;;;;6.30;1.67;;;;;;;13.67;74.33;101787.09;5052288;28;20125;-72
2021/12/27 00:23:43;;;;;;;4.38;1.58;;;;;;;13.68;74.06;101772.97;5050321;28;20044;-72
2021/12/27 00:26:10;;;;;;;4.05;1.27;;;;;;;13.69;73.78;101775.66;5075226;28;20136;-72
2021/12/27 00:28:38;;;;;;;4.82;1.38;;;;;;;13.68;73.69;101776.50;5035456;28;20041;-72
2021/12/27 00:31:05;;;;;;;6.25;0.70;;;;;;;13.67;73.75;101777.38;5056334;28;20099;-72
2021/12/27 00:33:33;;;;;;;2.38;1.58;;;;;;;13.68;73.39;101773.88;5055942;28;20068;-72
2021/12/27 00:36:03;;;;;;;5.78;2.13;;;;;;;13.72;73.59;101775.69;5048191;28;20051;-72
2021/12/27 00:38:30;;;;;;;3.10;1.30;;;;;;;13.69;73.79;101769.44;5050818;28;20037;-72
2021/12/27 00:40:58;;;;;;;2.05;1.08;;;;;;;13.64;73.61;101772.03;5051895;28;20088;-72
2021/12/27 00:43:25;;;;;;;1.85;1.05;;;;;;;13.67;73.65;101772.06;5048642;28;20045;-72
2021/12/27 00:45:53;;;;;;;7.88;3.28;;;;;;;13.69;73.81;101778.31;5062524;28;20120;-72
2021/12/27 00:48:20;;;;;;;4.28;1.98;;;;;;;13.64;73.49;101777.34;5049125;28;20048;-72
2021/12/27 00:50:48;;;;;;;3.13;1.58;;;;;;;13.54;73.67;101775.34;5048994;28;20049;-72
2021/12/27 00:53:18;;;;;;;2.10;1.13;;;;;;;13.50;73.78;101777.06;5080864;28;20393;-72
2021/12/27 00:55:45;;;;;;;3.50;1.40;;;;;;;13.51;74.07;101775.31;5047971;28;20087;-72
2021/12/27 00:58:13;;;;;;;2.15;1.17;;;;;;;13.54;73.77;101784.19;5032321;28;20401;-72
2021/12/27 01:00:41;;;;;;;4.13;1.48;;;;;;;13.54;74.13;101784.19;5056428;28;20691;-72
2021/12/27 01:03:10;;;;;;;6.15;2.85;;;;;;;13.57;73.75;101780.72;5066246;28;20045;-72
2021/12/27 01:05:38;;;;;;;6.03;1.65;;;;;;;13.52;73.69;101774.44;5050450;28;20044;-72
2021/12/27 01:08:06;;;;;;;1.08;0.98;;;;;;;13.48;73.51;101775.22;5064444;28;20620;-72
2021/12/27 01:10:59;;;;;;;3.20;1.52;;;;;;;13.50;73.95;101779.72;5037437;28;20039;-72
2021/12/27 01:13:38;;;;;;;7.03;2.95;;;;;;;13.53;73.65;101774.44;5065748;28;20559;-72
2021/12/27 01:16:13;;;;;;;3.50;1.45;;;;;;;13.53;73.48;101766.50;5056120;28;20049;-72
2021/12/27 01:18:45;;;;;;;4.70;2.88;;;;;;;13.51;73.84;101770.91;5061265;28;20047;-72
2021/12/27 01:21:14;;;;;;;4.28;1.70;;;;;;;13.51;73.35;101759.38;5054319;28;20692;-72
2021/12/27 01:23:42;;;;;;;4.93;1.30;;;;;;;13.54;73.34;101765.63;5069096;28;20082;-72
2021/12/27 01:26:11;;;;;;;3.80;1.23;;;;;;;13.55;73.43;101751.50;5068578;28;20049;-72
2021/12/27 01:28:40;;;;;;;1.95;0.75;;;;;;;13.52;73.14;101747.91;5061595;28;20563;-72
2021/12/27 01:31:08;;;;;;;5.15;1.30;;;;;;;13.47;73.61;101746.91;5049117;28;20098;-72
2021/12/27 01:33:36;;;;;;;3.65;1.70;;;;;;;13.42;73.35;101744.19;5048691;28;20045;-72
2021/12/27 01:36:05;;;;;;;2.88;1.33;;;;;;;13.37;73.71;101743.19;5049436;28;20060;-72
2021/12/27 01:38:35;;;;;;;1.58;0.75;;;;;;;13.32;73.74;101744.88;5068330;28;20045;-72
2021/12/27 01:41:03;;;;;;;2.45;1.30;;;;;;;13.34;73.85;101739.56;5059425;28;20099;-72
2021/12/27 01:43:34;;;;;;;4.78;1.50;;;;;;;13.35;73.63;101738.72;5047244;28;20073;-72
2021/12/27 01:46:05;;;;;;;4.15;1.38;;;;;;;13.32;73.84;101742.22;5062406;28;20102;-72
2021/12/27 01:48:37;;;;;;;3.85;1.42;;;;;;;13.30;73.92;101733.31;5052249;28;20084;-72
2021/12/27 01:51:07;;;;;;;5.25;1.40;;;;;;;13.25;74.03;101729.69;5065010;28;20040;-72
2021/12/27 01:53:37;;;;;;;7.13;1.48;;;;;;;13.26;74.00;101725.28;5062215;28;20045;-72
2021/12/27 01:56:07;;;;;;;2.97;1.08;;;;;;;13.30;74.14;101722.72;5054388;28;20045;-72
2021/12/27 01:58:36;;;;;;;5.20;2.17;;;;;;;13.40;73.88;101727.31;5058294;28;20110;-72
2021/12/27 02:01:09;;;;;;;1.98;1.15;;;;;;;13.47;73.85;101715.97;5066700;28;20493;-72
2021/12/27 02:03:40;;;;;;;4.50;1.20;;;;;;;13.47;73.91;101718.63;5068070;28;20059;-72
2021/12/27 02:06:09;;;;;;;2.53;1.00;;;;;;;13.48;73.75;101709.81;5067997;28;20041;-72
2021/12/27 02:08:38;;;;;;;2.92;0.88;;;;;;;13.52;73.57;101703.69;5066444;28;20068;-72
2021/12/27 02:11:07;;;;;;;2.53;1.08;;;;;;;13.55;73.64;101698.44;5067142;28;20059;-72
2021/12/27 02:13:42;;;;;;;5.70;1.40;;;;;;;13.61;73.69;101699.41;5050086;28;20392;-72
2021/12/27 02:16:10;;;;;;;3.78;1.58;;;;;;;13.59;73.49;101702.03;5067935;28;20441;-72
2021/12/27 02:18:39;;;;;;;8.20;1.40;;;;;;;13.52;73.65;101698.38;5068641;28;20455;-72
2021/12/27 02:21:08;;;;;;;1.80;0.50;;;;;;;13.53;73.68;101700.16;5067649;28;20110;-72
2021/12/27 02:23:38;;;;;;;5.90;1.75;;;;;;;13.52;73.85;101692.22;5066343;28;20037;-72
2021/12/27 02:26:06;;;;;;;4.22;1.70;;;;;;;13.49;73.79;101689.47;5066745;28;20036;-72
2021/12/27 02:28:34;;;;;;;2.55;1.30;;;;;;;13.43;73.98;101684.97;5069029;28;20098;-72
2021/12/27 02:31:02;;;;;;;3.97;1.77;;;;;;;13.46;73.92;101689.41;5071733;28;20094;-72
2021/12/27 02:33:29;;;;;;;4.47;1.25;;;;;;;13.37;73.67;101684.84;5070365;28;20037;-72
2021/12/27 02:35:59;;;;;;;1.85;0.80;;;;;;;13.39;73.92;101679.59;5069451;28;20150;-72
2021/12/27 02:38:30;;;;;;;4.47;1.70;;;;;;;13.42;73.96;101685.81;5072011;28;20504;-72
2021/12/27 02:40:59;;;;;;;2.63;1.50;;;;;;;13.41;74.08;101680.47;5070909;28;20055;-72
2021/12/27 02:43:28;;;;;;;4.20;1.52;;;;;;;13.43;73.78;101692.91;5071137;28;20502;-73
2021/12/27 02:45:57;;;;;;;5.22;1.70;;;;;;;13.47;73.63;101681.50;5070929;28;20059;-73
2021/12/27 02:48:28;;;;;;;1.90;1.05;;;;;;;13.40;73.80;101682.25;5070197;28;20056;-72
2021/12/27 02:50:56;;;;;;;3.15;1.35;;;;;;;13.39;73.74;101679.59;5069580;28;20048;-73
2021/12/27 02:53:25;;;;;;;4.55;2.17;;;;;;;13.39;73.90;101685.75;5053703;28;20523;-72
2021/12/27 02:55:57;;;;;;;5.55;2.35;;;;;;;13.37;73.37;101686.59;5070314;28;20040;-72
2021/12/27 02:58:25;;;;;;;2.47;0.95;;;;;;;13.28;73.71;101676.69;5071499;28;20043;-74
2021/12/27 03:00:55;;;;;;;4.78;1.88;;;;;;;13.27;73.77;101680.22;5071362;28;20511;-72
2021/12/27 03:03:23;;;;;;;5.45;1.75;;;;;;;13.20;73.65;101680.97;5060561;28;20090;-72
2021/12/27 03:05:51;;;;;;;5.40;1.15;;;;;;;13.18;73.94;101685.34;5050786;28;20137;-72
2021/12/27 03:08:20;;;;;;;5.60;2.25;;;;;;;13.21;74.02;101673.91;5050114;28;20049;-73
2021/12/27 03:10:50;;;;;;;4.35;1.80;;;;;;;13.24;73.78;101672.22;5052518;28;20045;-72
2021/12/27 03:13:21;;;;;;;2.05;1.02;;;;;;;13.25;73.99;101681.06;5069730;28;20127;-72
2021/12/27 03:15:52;;;;;;;1.58;1.20;;;;;;;13.19;73.90;101679.19;5054240;28;20114;-72
2021/12/27 03:18:21;;;;;;;3.65;1.23;;;;;;;13.19;73.72;101683.59;5069978;28;20500;-73
2021/12/27 03:20:49;;;;;;;3.58;1.23;;;;;;;13.16;73.64;101676.47;5076637;28;20036;-72
2021/12/27 03:23:17;;;;;;;6.63;1.38;;;;;;;13.18;73.46;101682.72;5070250;28;20040;-72
2021/12/27 03:25:44;;;;;;;6.45;2.60;;;;;;;13.14;73.60;101679.09;5070112;28;20052;-72
2021/12/27 03:28:13;;;;;;;4.95;2.55;;;;;;;13.11;73.60;101681.66;5068596;28;20068;-72
2021/12/27 03:30:43;;;;;;;4.78;2.28;;;;;;;13.09;73.83;101675.41;5052690;28;20036;-72
2021/12/27 03:33:12;;;;;;;6.40;2.60;;;;;;;13.10;73.67;101685.16;5082246;28;20045;-72
2021/12/27 03:35:48;;;;;;;6.25;2.88;;;;;;;13.09;73.68;101683.38;5085234;28;20045;-72
2021/12/27 03:38:16;;;;;;;8.38;2.47;;;;;;;13.07;73.36;101678.88;5083864;28;20044;-72
2021/12/27 03:40:45;;;;;;;3.70;0.95;;;;;;;13.06;73.41;101679.78;5068285;28;20040;-72
2021/12/27 03:43:14;;;;;;;6.28;1.10;;;;;;;13.05;73.41;101675.34;5067584;28;20515;-72
2021/12/27 03:45:43;;;;;;;8.90;1.63;;;;;;;13.14;73.42;101678.19;5058742;28;20051;-72
2021/12/27 03:48:11;;;;;;;7.40;1.85;;;;;;;13.15;73.18;101674.69;5070736;28;20403;-72
2021/12/27 03:50:40;;;;;;;5.28;1.60;;;;;;;13.14;73.08;101672.88;5062692;28;20086;-72
2021/12/27 03:53:09;;;;;;;6.88;1.50;;;;;;;13.13;72.77;101677.28;5055407;28;20562;-72
2021/12/27 03:55:38;;;;;;;7.25;1.13;;;;;;;13.11;73.08;101670.16;5068879;28;20446;-72
2021/12/27 03:58:09;;;;;;;2.03;1.13;;;;;;;13.12;72.95;101669.31;5054618;28;20406;-72
2021/12/27 04:01:00;;;;;;;5.72;1.35;;;;;;;13.13;72.89;101672.00;5081595;28;20029;-72
2021/12/27 04:03:31;;;;;;;7.50;1.80;;;;;;;13.13;72.95;101674.63;5069718;28;20064;-73
2021/12/27 04:05:59;;;;;;;4.43;2.20;;;;;;;13.12;72.90;101675.53;5075575;28;20044;-73
2021/12/27 04:08:27;;;;;;;8.40;1.83;;;;;;;13.12;72.91;101677.25;5069683;28;20041;-73
2021/12/27 04:10:55;;;;;;;6.68;1.15;;;;;;;13.08;73.03;101667.44;5068483;28;20068;-74
2021/12/27 04:13:24;;;;;;;6.93;1.52;;;;;;;13.08;73.34;101675.38;5068336;28;20047;-72
2021/12/27 04:15:53;;;;;;;7.35;1.13;;;;;;;13.07;73.27;101674.47;5061725;28;20133;-72
2021/12/27 04:18:21;;;;;;;4.88;0.98;;;;;;;13.12;73.50;101678.19;5064764;28;20566;-72
2021/12/27 04:20:50;;;;;;;1.92;0.95;;;;;;;13.15;73.33;101685.28;5057197;28;20098;-72
2021/12/27 04:23:18;;;;;;;2.25;1.13;;;;;;;13.16;73.46;101680.03;5069570;28;20040;-71
2021/12/27 04:25:46;;;;;;;4.15;1.30;;;;;;;13.25;73.08;101681.97;5067701;28;20052;-72
2021/12/27 04:28:15;;;;;;;4.38;0.85;;;;;;;13.30;72.98;101685.59;5055652;28;20114;-71
2021/12/27 04:30:42;;;;;;;4.72;0.95;;;;;;;13.38;73.06;101683.09;5048837;28;20417;-72
2021/12/27 04:33:10;;;;;;;4.70;0.95;;;;;;;13.42;72.78;101692.88;5056425;28;20037;-72
2021/12/27 04:35:39;;;;;;;6.40;1.70;;;;;;;13.41;72.52;101691.97;5050758;28;20056;-71
2021/12/27 04:38:09;;;;;;;5.70;1.00;;;;;;;13.42;72.61;101696.44;5047571;28;20045;-72
2021/12/27 04:40:40;;;;;;;6.60;2.15;;;;;;;13.45;72.55;101688.53;5061056;28;20053;-72
2021/12/27 04:43:11;;;;;;;2.72;1.25;;;;;;;13.43;72.47;101689.38;5076198;28;20052;-71
2021/12/27 04:45:40;;;;;;;3.33;0.80;;;;;;;13.37;72.60;101690.16;5052041;28;20045;-71
2021/12/27 04:48:08;;;;;;;7.18;1.55;;;;;;;13.37;72.89;101686.59;5058185;28;20136;-72
2021/12/27 04:50:37;;;;;;;4.28;1.38;;;;;;;13.34;72.91;101699.78;5030858;28;20049;-72
2021/12/27 04:53:05;;;;;;;5.90;1.38;;;;;;;13.30;72.61;101701.50;5066585;28;20119;-72
2021/12/27 04:55:35;;;;;;;4.30;1.38;;;;;;;13.33;72.74;101695.34;5069011;28;20055;-71
2021/12/27 04:58:04;;;;;;;4.78;1.23;;;;;;;13.32;72.51;101707.75;5067875;28;20041;-72
2021/12/27 05:00:31;;;;;;;6.72;2.30;;;;;;;13.37;72.39;101708.72;5057263;28;20136;-72
2021/12/27 05:02:59;;;;;;;4.25;1.48;;;;;;;13.37;72.39;101700.75;5056087;28;20607;-72
2021/12/27 05:05:30;;;;;;;4.13;1.23;;;;;;;13.35;72.35;101702.47;5052406;28;20036;-72
2021/12/27 05:07:58;;;;;;;4.75;1.90;;;;;;;13.33;72.35;101705.94;5080649;28;20471;-72
2021/12/27 05:10:27;;;;;;;3.30;1.10;;;;;;;13.32;72.72;101709.50;5048672;28;20127;-72
2021/12/27 05:12:56;;;;;;;2.58;0.90;;;;;;;13.33;72.46;101716.56;5049356;28;20043;-72
2021/12/27 05:15:24;;;;;;;3.63;1.30;;;;;;;13.33;72.26;101709.50;5046062;28;20152;-72
2021/12/27 05:17:52;;;;;;;3.28;0.90;;;;;;;13.36;72.19;101717.53;5065546;28;20090;-72
2021/12/27 05:20:19;;;;;;;6.07;1.90;;;;;;;13.33;72.28;101712.16;5049084;28;20041;-72
2021/12/27 05:22:47;;;;;;;2.25;0.90;;;;;;;13.28;72.47;101713.81;5064117;28;20799;-72
2021/12/27 05:25:16;;;;;;;4.05;1.35;;;;;;;13.26;72.37;101718.19;5060728;28;20044;-72
2021/12/27 05:27:44;;;;;;;5.03;1.10;;;;;;;13.30;72.19;101724.47;5060550;28;20494;-72
2021/12/27 05:30:15;;;;;;;4.85;1.27;;;;;;;13.31;72.43;101721.88;5067114;28;20091;-72
2021/12/27 05:32:44;;;;;;;3.38;1.42;;;;;;;13.30;72.02;101716.53;5066425;28;20667;-72
2021/12/27 05:35:13;;;;;;;1.40;0.57;;;;;;;13.32;72.37;101718.34;5048812;28;20056;-72
2021/12/27 05:37:42;;;;;;;3.88;1.25;;;;;;;13.35;72.35;101721.03;5064185;28;20127;-72
2021/12/27 05:40:13;;;;;;;3.47;1.20;;;;;;;13.36;72.27;101717.53;5068533;28;20114;-72
2021/12/27 05:42:41;;;;;;;2.67;0.73;;;;;;;13.36;72.40;101719.28;5067813;28;20037;-72
2021/12/27 05:45:09;;;;;;;3.00;1.02;;;;;;;13.39;72.15;101716.72;5061591;28;20049;-72
2021/12/27 05:47:38;;;;;;;5.15;1.15;;;;;;;13.41;72.00;101715.84;5057045;28;20037;-72
2021/12/27 05:50:07;;;;;;;3.78;1.20;;;;;;;13.42;72.30;101722.94;5067499;28;20048;-71
2021/12/27 05:52:35;;;;;;;1.38;0.90;;;;;;;13.43;72.00;101727.41;5066722;28;20044;-71
2021/12/27 05:55:03;;;;;;;1.80;1.08;;;;;;;13.45;72.09;101720.38;5032954;28;20137;-72
2021/12/27 05:57:31;;;;;;;5.20;1.35;;;;;;;13.50;71.86;101731.97;5067127;28;20044;-72
2021/12/27 05:59:58;;;;;;;4.85;1.88;;;;;;;13.52;71.69;101724.03;5066904;28;20052;-72
2021/12/27 06:02:26;;;;;;;2.95;1.20;;;;;;;13.55;71.92;101718.78;5065829;28;20064;-72
2021/12/27 06:04:55;;;;;;;3.53;1.55;;;;;;;13.58;71.77;101732.13;5061176;28;20119;-71
2021/12/27 06:07:23;;;;;;;5.55;2.08;;;;;;;13.60;71.90;101727.72;5058409;28;20397;-71
2021/12/27 06:09:50;;;;;;;2.63;1.20;;;;;;;13.61;71.43;101729.50;5072560;28;20044;-71
2021/12/27 06:12:18;;;;;;;3.20;1.35;;;;;;;13.63;71.25;101727.78;5071715;28;20072;-72
2021/12/27 06:14:45;;;;;;;5.22;2.13;;;;;;;13.63;71.69;101729.53;5056190;28;20056;-72
2021/12/27 06:17:13;;;;;;;4.50;1.45;;;;;;;13.66;71.17;101729.56;5070710;28;20094;-72
2021/12/27 06:19:40;;;;;;;2.72;1.20;;;;;;;13.71;71.36;101728.81;5072045;28;20087;-72
2021/12/27 06:22:10;;;;;;;3.72;0.93;;;;;;;13.86;71.12;101721.13;5075143;28;20059;-72
2021/12/27 06:24:38;;;;;;;4.20;1.40;;;;;;;14.15;70.56;101723.38;5066383;28;20082;-72
2021/12/27 06:27:06;;;;;;;3.90;1.10;;;;;;;14.48;69.74;101725.72;5070350;28;20045;-72
2021/12/27 06:29:34;;;;;;;4.25;1.23;;;;;;;14.79;68.17;101721.72;5070553;28;20044;-72
2021/12/27 06:32:02;;;;;;;5.07;1.42;;;;;;;15.08;66.72;101731.88;5071642;28;20047;-73
2021/12/27 06:34:29;;;;;;;4.30;1.10;;;;;;;15.31;66.04;101721.50;5053885;28;20488;-72
2021/12/27 06:36:57;;;;;;;6.85;1.92;;;;;;;15.49;65.58;101726.16;5071076;28;20090;-73
2021/12/27 06:39:26;;;;;;;6.15;1.50;;;;;;;15.67;64.95;101726.38;5070810;28;20033;-73
2021/12/27 06:41:54;;;;;;;1.60;1.10;;;;;;;15.82;64.21;101723.84;5068450;28;20044;-72
2021/12/27 06:44:21;;;;;;;3.47;1.20;;;;;;;15.98;63.70;101737.31;5055002;28;20497;-72
2021/12/27 06:46:49;;;;;;;4.53;1.30;;;;;;;16.10;63.62;101730.31;5069835;28;20044;-73
2021/12/27 06:49:17;;;;;;;4.70;1.80;;;;;;;16.25;62.95;101726.91;5070693;28;20102;-72
2021/12/27 06:51:44;;;;;;;6.75;1.58;;;;;;;16.40;62.07;101734.13;5052673;28;20032;-72
2021/12/27 06:54:12;;;;;;;10.23;1.58;;;;;;;16.52;61.73;101721.78;5040349;28;20076;-73
2021/12/27 06:56:41;;;;;;;5.38;1.45;;;;;;;16.61;61.52;101716.53;5048103;28;20482;-72
2021/12/27 06:59:10;;;;;;;3.75;1.30;;;;;;;16.69;61.18;101730.81;5047744;28;20497;-73
2021/12/27 07:01:37;;;;;;;5.90;1.52;;;;;;;16.81;61.02;101726.41;5063418;28;20456;-73
2021/12/27 07:04:05;;;;;;;7.65;1.35;;;;;;;16.93;61.18;101729.16;5063136;28;20172;-73
2021/12/27 07:06:33;;;;;;;6.05;1.83;;;;;;;17.05;60.20;101735.47;5039612;28;20111;-74
2021/12/27 07:09:01;;;;;;;2.08;1.17;;;;;;;17.12;59.78;101741.72;5050728;28;20056;-73
2021/12/27 07:11:29;;;;;;;6.47;1.52;;;;;;;17.22;59.73;101732.84;5077482;28;20044;-72
2021/12/27 07:13:58;;;;;;;3.78;1.42;;;;;;;17.32;59.50;101736.47;5048134;28;20409;-73
2021/12/27 07:16:27;;;;;;;4.13;1.73;;;;;;;17.38;59.52;101750.72;5050033;28;20040;-74
2021/12/27 07:18:55;;;;;;;2.03;1.27;;;;;;;17.46;59.59;101743.59;5041789;28;20126;-73
2021/12/27 07:21:22;;;;;;;6.93;1.35;;;;;;;17.57;58.93;101745.44;5038269;28;20045;-72
2021/12/27 07:23:50;;;;;;;4.35;1.48;;;;;;;17.64;58.67;101747.25;5073298;28;20684;-72
2021/12/27 07:26:18;;;;;;;5.72;1.77;;;;;;;17.71;58.60;101741.94;5057774;28;20040;-73
2021/12/27 07:28:46;;;;;;;3.60;1.48;;;;;;;17.80;58.03;101741.94;5068483;28;20606;-73
2021/12/27 07:31:15;;;;;;;3.92;1.48;;;;;;;17.88;57.58;101740.19;5069715;28;20412;-73
2021/12/27 07:33:43;;;;;;;7.00;1.90;;;;;;;17.95;56.76;101742.84;5070435;28;20037;-71
2021/12/27 07:36:11;;;;;;;3.58;1.33;;;;;;;17.95;56.73;101733.06;5069861;28;20505;-73
2021/12/27 07:38:40;;;;;;;4.72;1.58;;;;;;;18.05;57.44;101753.53;5068595;28;20134;-72
2021/12/27 07:41:08;;;;;;;2.50;1.20;;;;;;;18.14;56.64;101756.22;5069111;28;20120;-72
2021/12/27 07:43:36;;;;;;;5.82;1.48;;;;;;;18.22;56.36;101750.91;5067534;28;20039;-72
2021/12/27 07:46:04;;;;;;;6.35;1.58;;;;;;;18.31;55.79;101750.91;5067973;28;20048;-72
2021/12/27 07:48:33;;;;;;;4.45;1.70;;;;;;;18.38;54.96;101735.75;5070940;28;20119;-73
2021/12/27 07:51:01;;;;;;;9.98;1.60;;;;;;;18.42;54.98;101749.09;5069484;28;20032;-73
2021/12/27 07:53:29;;;;;;;7.55;1.52;;;;;;;18.54;54.68;101753.53;5068682;28;20040;-73
2021/12/27 07:55:56;;;;;;;8.15;1.90;;;;;;;18.63;54.62;101741.09;5066724;28;20049;-73
2021/12/27 07:58:24;;;;;;;13.13;1.90;;;;;;;18.75;53.47;101734.81;5067258;28;20131;-72
2021/12/27 08:00:54;;;;;;;5.70;1.83;;;;;;;18.79;53.37;101743.72;5068517;28;20041;-74
2021/12/27 08:03:23;;;;;;;4.85;1.50;;;;;;;18.88;53.85;101747.28;5060299;28;20048;-74
2021/12/27 08:05:52;;;;;;;4.82;1.60;;;;;;;18.98;53.73;101741.00;5069703;28;20055;-72
2021/12/27 08:08:19;;;;;;;7.50;1.35;;;;;;;19.05;53.52;101739.19;5069813;28;20090;-73
2021/12/27 08:10:47;;;;;;;8.38;2.10;;;;;;;19.13;53.04;101742.72;5069481;28;20099;-73
2021/12/27 08:13:15;;;;;;;5.78;1.70;;;;;;;19.17;52.85;101743.59;5069171;28;20672;-73
2021/12/27 08:15:43;;;;;;;5.10;1.95;;;;;;;19.26;53.06;101743.56;5068854;28;20507;-74
2021/12/27 08:18:10;;;;;;;5.78;2.20;;;;;;;19.32;52.26;101739.06;5068846;28;20143;-73
2021/12/27 08:20:38;;;;;;;4.90;2.05;;;;;;;19.36;52.02;101745.31;5069790;28;20040;-73
2021/12/27 08:23:07;;;;;;;6.05;1.58;;;;;;;19.48;52.30;101734.59;5068040;28;20049;-73
2021/12/27 08:25:35;;;;;;;7.53;1.70;;;;;;;19.54;51.35;101739.91;5066962;28;20052;-73
2021/12/27 08:28:03;;;;;;;6.25;1.80;;;;;;;19.61;51.01;101730.94;5069210;28;20049;-73
2021/12/27 08:30:31;;;;;;;4.38;1.35;;;;;;;19.61;50.92;101736.28;5068328;28;20506;-75
2021/12/27 08:32:59;;;;;;;7.68;1.50;;;;;;;19.63;50.37;101729.09;5061924;28;20635;-74
2021/12/27 08:35:28;;;;;;;5.85;1.30;;;;;;;19.67;50.15;101713.94;5066529;28;20074;-75
2021/12/27 08:37:56;;;;;;;5.78;2.05;;;;;;;19.74;50.71;101737.09;5071413;28;20048;-74
2021/12/27 08:40:25;;;;;;;3.55;1.67;;;;;;;19.93;50.40;101729.81;5066869;28;20064;-74
2021/12/27 08:42:54;;;;;;;5.47;1.45;;;;;;;19.98;50.22;101728.00;5048603;28;20116;-73
2021/12/27 08:45:22;;;;;;;4.07;1.70;;;;;;;20.05;50.04;101727.94;5035173;28;20052;-73
2021/12/27 08:47:50;;;;;;;6.25;1.33;;;;;;;20.14;49.05;101721.63;5045687;28;20041;-74
2021/12/27 08:50:17;;;;;;;6.85;1.50;;;;;;;20.22;49.03;101733.16;5056201;28;20127;-73
2021/12/27 08:52:45;;;;;;;4.40;1.40;;;;;;;20.26;48.88;101705.41;5046468;28;20033;-73
2021/12/27 08:55:14;;;;;;;4.78;1.10;;;;;;;20.21;48.80;101700.09;5040537;28;20136;-73
2021/12/27 08:57:44;;;;;;;6.60;1.77;;;;;;;20.16;48.17;101704.59;5035840;28;20096;-74
2021/12/27 09:00:14;;;;;;;4.10;1.63;;;;;;;20.06;48.26;101704.69;5061819;28;20037;-73
2021/12/27 09:02:42;;;;;;;7.28;1.85;;;;;;;20.13;48.41;101682.28;5064340;28;20048;-75
2021/12/27 09:05:10;;;;;;;2.25;1.00;;;;;;;20.16;47.71;101709.06;5065918;28;20082;-73
2021/12/27 09:07:38;;;;;;;5.80;1.70;;;;;;;20.21;48.36;101701.91;5073496;28;20141;-73
2021/12/27 09:10:10;;;;;;;4.50;1.17;;;;;;;20.29;47.99;101691.97;5063661;28;20036;-75
2021/12/27 09:12:40;;;;;;;6.45;0.90;;;;;;;20.30;48.13;101691.06;5065177;28;20048;-73
2021/12/27 09:15:11;;;;;;;7.45;1.67;;;;;;;20.38;47.36;101686.56;5049674;28;20079;-73
2021/12/27 09:17:39;;;;;;;2.17;0.98;;;;;;;20.34;47.33;101682.13;5065670;28;20033;-74
2021/12/27 09:20:08;;;;;;;7.45;1.70;;;;;;;20.43;47.87;101671.28;5064048;28;20044;-74
2021/12/27 09:22:36;;;;;;;4.82;1.55;;;;;;;20.47;48.24;101669.50;5061291;28;20045;-74
2021/12/27 09:25:04;;;;;;;5.07;1.67;;;;;;;20.56;47.85;101672.94;5064956;28;20082;-75
2021/12/27 09:27:32;;;;;;;2.45;0.77;;;;;;;20.53;46.86;101667.63;5067254;28;20498;-74
2021/12/27 09:29:59;;;;;;;4.88;1.15;;;;;;;20.59;47.17;101666.66;5063038;28;20072;-73
2021/12/27 09:32:29;;;;;;;7.22;1.27;;;;;;;20.54;46.86;101668.53;5059816;28;20040;-73
2021/12/27 09:34:57;;;;;;;3.05;1.13;;;;;;;20.55;46.60;101648.81;5062658;28;20912;-74
2021/12/27 09:37:25;;;;;;;3.40;1.33;;;;;;;20.52;46.22;101636.34;5055549;28;20034;-73
2021/12/27 09:39:54;;;;;;;3.72;1.23;;;;;;;20.44;45.15;101658.78;5055772;28;20055;-74
2021/12/27 09:42:22;;;;;;;3.63;1.30;;;;;;;20.37;45.09;101649.91;5053624;28;20396;-73
2021/12/27 09:44:50;;;;;;;6.82;1.55;;;;;;;20.37;44.46;101652.59;5036961;28;20663;-74
2021/12/27 09:47:18;;;;;;;2.50;0.90;;;;;;;20.39;44.63;101655.25;5049128;28;20045;-73
2021/12/27 09:49:48;;;;;;;9.43;1.75;;;;;;;20.52;45.16;101639.00;5049341;28;20043;-74
2021/12/27 09:52:16;;;;;;;6.25;1.75;;;;;;;20.55;44.84;101638.97;5064438;28;20114;-74
2021/12/27 09:54:47;;;;;;;4.10;1.45;;;;;;;20.70;44.59;101632.53;5035831;28;20438;-74
2021/12/27 09:57:15;;;;;;;3.17;1.30;;;;;;;20.65;44.31;101640.66;5052254;28;20044;-74
2021/12/27 09:59:42;;;;;;;5.85;1.50;;;;;;;20.67;44.02;101636.16;5054619;28;20028;-74
2021/12/27 10:02:11;;;;;;;4.40;1.13;;;;;;;20.76;43.23;101631.56;5052924;28;20131;-74
2021/12/27 10:04:39;;;;;;;5.18;1.20;;;;;;;20.70;42.26;101619.13;5040842;28;20120;-74
2021/12/27 10:07:08;;;;;;;3.35;1.50;;;;;;;20.66;42.90;101620.06;5083687;28;20037;-72
2021/12/27 10:09:38;;;;;;;5.43;0.93;;;;;;;20.61;43.64;101613.88;5052888;28;20033;-74
2021/12/27 10:12:08;;;;;;;7.70;1.90;;;;;;;20.65;44.41;101626.34;5018038;28;20041;-74
2021/12/27 10:14:36;;;;;;;4.88;1.15;;;;;;;20.69;44.46;101612.84;5035072;28;20197;-74
2021/12/27 10:17:10;;;;;;;3.58;1.30;;;;;;;20.66;44.51;101620.06;5037315;28;20079;-74
2021/12/27 10:19:39;;;;;;;4.50;1.30;;;;;;;20.66;44.74;101615.59;5071220;28;20125;-74
2021/12/27 10:22:13;;;;;;;6.20;3.25;;;;;;;20.74;44.77;101628.03;5081662;28;20068;-74
2021/12/27 10:24:41;;;;;;;8.65;3.97;;;;;;;20.71;43.38;101610.16;5050447;28;20509;-75
2021/12/27 10:27:09;;;;;;;12.98;9.18;;;;;;;20.59;44.02;101621.94;5033309;28;20045;-74
2021/12/27 10:29:39;;;;;;;11.30;8.02;;;;;;;20.65;44.51;101612.94;5035294;28;20095;-74
2021/12/27 10:32:10;;;;;;;6.90;1.85;;;;;;;20.74;44.85;101612.81;5051534;28;20049;-73
2021/12/27 10:34:40;;;;;;;6.18;1.13;;;;;;;20.64;43.83;101595.94;5049334;28;20036;-74
2021/12/27 10:37:25;;;;;;;7.20;1.27;;;;;;;20.60;43.74;101594.22;5082235;28;20067;-74
2021/12/27 10:39:56;;;;;;;7.22;1.58;;;;;;;20.55;43.95;101598.72;5027527;28;20120;-74
2021/12/27 10:42:27;;;;;;;5.97;1.00;;;;;;;20.67;44.66;101600.38;5042232;28;20048;-73
2021/12/27 10:44:57;;;;;;;5.57;1.73;;;;;;;20.82;44.22;101591.22;5042339;28;20054;-73
2021/12/27 10:47:40;;;;;;;9.57;5.93;;;;;;;20.77;44.23;101587.72;5043150;28;20040;-73
2021/12/27 10:50:12;;;;;;;5.95;1.92;;;;;;;20.70;43.81;101589.59;5049827;28;20037;-73
2021/12/27 10:52:59;;;;;;;6.18;1.38;;;;;;;20.48;43.59;101580.06;5064053;28;20041;-74
2021/12/27 10:55:34;;;;;;;4.68;1.30;;;;;;;20.22;43.51;101574.94;5062997;28;20050;-74
2021/12/27 10:58:18;;;;;;;3.35;1.42;;;;;;;20.06;44.53;101578.69;5050839;28;20496;-74
2021/12/27 11:00:48;;;;;;;3.65;1.10;;;;;;;19.85;44.82;101569.97;5049252;28;20049;-75
2021/12/27 11:03:26;;;;;;;6.95;1.38;;;;;;;19.69;45.58;101568.31;5043891;28;20069;-73
2021/12/27 11:05:55;;;;;;;8.23;3.70;;;;;;;19.63;46.18;101568.38;5070091;28;20041;-73
2021/12/27 11:08:26;;;;;;;7.05;4.10;;;;;;;19.78;46.15;101570.03;5041475;28;20120;-74
2021/12/27 11:10:55;;;;;;;6.78;2.03;;;;;;;19.94;46.07;101568.09;5031495;28;20501;-74
2021/12/27 11:13:23;;;;;;;10.80;1.92;;;;;;;20.13;45.87;101554.50;5078437;28;20160;-74
2021/12/27 11:15:51;;;;;;;2.55;1.02;;;;;;;20.26;46.08;101549.88;5082508;28;20404;-73
2021/12/27 11:18:19;;;;;;;5.25;1.20;;;;;;;20.41;45.26;101549.75;5060486;28;20400;-74
2021/12/27 11:20:52;;;;;;;5.15;2.38;;;;;;;20.48;45.00;101554.09;5043473;28;20053;-74
2021/12/27 11:23:21;;;;;;;6.18;3.55;;;;;;;20.56;44.51;101549.53;5046099;28;20068;-74
2021/12/27 11:26:02;;;;;;;4.85;1.95;;;;;;;20.66;45.06;101540.47;5032651;28;20045;-73
2021/12/27 11:28:33;;;;;;;3.67;1.33;;;;;;;20.65;43.37;101544.06;5042068;28;20409;-73
2021/12/27 11:31:05;;;;;;;2.60;0.90;;;;;;;20.49;43.57;101529.03;5041916;28;20045;-74
2021/12/27 11:33:34;;;;;;;4.53;1.10;;;;;;;20.39;42.84;101537.22;5038713;28;20658;-74